Time;durP1;ratioP1;P1;durP2;ratioP2;P2;SDS_P1;SDS_P2;PMS_P1;PMS_P2;Temp;Humidity;BMP_temperature;BMP_pressure;BME280_temperature;BME280_humidity;BME280_pressure;Samples;Min_cycle;Max_cycle;Signal;HPM_P1;HPM_P2
2023/05/07 00:02:03;;;;;;;7.50;5.70;;;;;;;6.59;100.00;101291.36;105415;1269;97960;-81
2023/05/07 00:04:48;;;;;;;8.00;5.90;;;;;;;6.58;100.00;101292.88;105467;1266;98845;-81
2023/05/07 00:07:34;;;;;;;13.10;5.50;;;;;;;6.54;100.00;101287.36;105495;1272;101460;-81
2023/05/07 00:10:19;;;;;;;11.00;5.60;;;;;;;6.50;100.00;101290.42;105429;1271;99102;-80
2023/05/07 00:13:05;;;;;;;9.70;5.10;;;;;;;6.45;100.00;101287.36;105456;1268;98911;-79
2023/05/07 00:15:50;;;;;;;9.00;6.00;;;;;;;6.43;100.00;101290.89;105438;1271;97970;-80
2023/05/07 00:18:36;;;;;;;10.20;5.50;;;;;;;6.42;100.00;101292.05;105558;1272;96230;-79
2023/05/07 00:21:22;;;;;;;9.80;5.40;;;;;;;6.41;100.00;101293.79;105643;1265;102012;-80
2023/05/07 00:24:07;;;;;;;7.50;5.60;;;;;;;6.40;100.00;101293.67;105715;1271;99108;-81
2023/05/07 00:26:53;;;;;;;8.20;5.40;;;;;;;6.40;100.00;101295.33;105574;1267;98003;-80
2023/05/07 00:29:38;;;;;;;7.80;5.10;;;;;;;6.40;100.00;101304.34;105679;1273;97979;-79
2023/05/07 00:32:24;;;;;;;8.30;5.60;;;;;;;6.37;100.00;101306.20;105479;1271;99262;-80
2023/05/07 00:35:09;;;;;;;6.60;5.30;;;;;;;6.35;100.00;101311.02;105540;1271;101340;-81
2023/05/07 00:37:55;;;;;;;8.80;5.30;;;;;;;6.34;100.00;101312.52;105644;1269;99218;-80
2023/05/07 00:40:40;;;;;;;8.90;5.40;;;;;;;6.33;100.00;101317.06;105561;1272;97895;-79
2023/05/07 00:43:27;;;;;;;5.50;4.40;;;;;;;6.32;100.00;101323.40;105540;1271;98041;-80
2023/05/07 00:46:13;;;;;;;7.30;4.70;;;;;;;6.30;100.00;101322.85;105547;1271;96680;-81
2023/05/07 00:48:59;;;;;;;8.60;4.90;;;;;;;6.27;100.00;101324.39;105626;1271;103161;-79
2023/05/07 00:51:45;;;;;;;9.60;5.10;;;;;;;6.24;100.00;101327.64;105585;1268;100393;-80
2023/05/07 00:54:32;;;;;;;7.00;5.70;;;;;;;6.22;100.00;101329.10;105467;1271;98014;-81
2023/05/07 00:57:21;;;;;;;8.20;4.90;;;;;;;6.20;100.00;101335.30;105491;1272;98855;-79
2023/05/07 01:00:08;;;;;;;8.00;4.70;;;;;;;6.17;100.00;101338.02;105015;1267;97945;-79
2023/05/07 01:02:54;;;;;;;9.70;5.60;;;;;;;6.16;100.00;101339.73;105501;1272;101342;-80
2023/05/07 01:05:41;;;;;;;7.10;4.90;;;;;;;6.15;100.00;101338.04;105616;1271;99081;-81
2023/05/07 01:08:29;;;;;;;6.20;5.20;;;;;;;6.12;100.00;101339.16;105533;1267;98739;-80
2023/05/07 01:11:15;;;;;;;7.30;4.50;;;;;;;6.10;100.00;101334.03;105543;1267;99236;-80
2023/05/07 01:14:01;;;;;;;8.00;5.40;;;;;;;6.09;100.00;101334.50;105322;1271;98068;-80
2023/05/07 01:16:50;;;;;;;7.70;4.70;;;;;;;6.06;100.00;101334.21;105476;1270;101448;-79
2023/05/07 01:19:37;;;;;;;5.60;3.90;;;;;;;6.06;100.00;101335.17;105507;1271;100530;-79
2023/05/07 01:22:37;;;;;;;8.30;5.20;;;;;;;6.05;100.00;101336.84;105458;1275;98982;-79
2023/05/07 01:25:23;;;;;;;9.00;4.90;;;;;;;6.03;100.00;101335.40;105779;1269;97971;-80
2023/05/07 01:28:10;;;;;;;7.80;5.00;;;;;;;6.00;100.00;101336.91;105648;1271;98858;-81
2023/05/07 01:31:03;;;;;;;7.40;4.80;;;;;;;5.98;100.00;101330.02;105683;1270;101427;-80
2023/05/07 01:33:52;;;;;;;10.60;4.10;;;;;;;5.98;100.00;101329.38;105551;1272;99120;-81
2023/05/07 01:36:39;;;;;;;5.40;4.30;;;;;;;5.98;100.00;101333.19;105759;1269;97994;-81
2023/05/07 01:39:27;;;;;;;7.00;4.40;;;;;;;5.96;100.00;101328.95;105530;1273;97917;-81
2023/05/07 01:42:12;;;;;;;10.60;4.30;;;;;;;5.96;100.00;101329.04;105606;1270;98416;-80
2023/05/07 01:44:58;;;;;;;6.40;4.30;;;;;;;5.93;100.00;101331.91;105574;1271;103191;-79
2023/05/07 01:47:44;;;;;;;6.80;4.20;;;;;;;5.91;100.00;101334.61;105582;1268;99107;-80
2023/05/07 01:50:31;;;;;;;6.20;4.80;;;;;;;5.88;100.00;101337.66;105572;1272;99052;-80
2023/05/07 01:53:17;;;;;;;8.40;3.90;;;;;;;5.86;100.00;101341.27;105537;1271;97983;-80
2023/05/07 01:56:03;;;;;;;4.80;4.00;;;;;;;5.83;100.00;101340.29;105439;1272;99055;-80
2023/05/07 01:58:51;;;;;;;4.00;3.60;;;;;;;5.81;100.00;101342.04;105514;1270;101364;-80
2023/05/07 02:01:37;;;;;;;5.00;3.70;;;;;;;5.79;100.00;101345.23;105459;1267;100169;-79
2023/05/07 02:04:23;;;;;;;5.40;3.90;;;;;;;5.78;100.00;101343.58;105437;1272;99000;-80
2023/05/07 02:07:09;;;;;;;5.60;4.10;;;;;;;5.77;100.00;101341.30;105521;1272;98730;-80
2023/05/07 02:09:56;;;;;;;4.40;3.60;;;;;;;5.79;100.00;101342.07;105497;1267;97181;-80
2023/05/07 02:12:42;;;;;;;4.50;3.60;;;;;;;5.79;100.00;101342.94;105513;1267;101292;-80
2023/05/07 02:15:27;;;;;;;5.90;3.30;;;;;;;5.79;100.00;101342.23;105437;1272;99085;-81
2023/05/07 02:18:13;;;;;;;5.50;3.60;;;;;;;5.78;100.00;101342.90;105017;1267;98465;-81
2023/05/07 02:20:59;;;;;;;6.30;3.70;;;;;;;5.76;100.00;101344.10;104836;1273;98072;-80
2023/05/07 02:23:45;;;;;;;4.40;3.60;;;;;;;5.76;100.00;101346.78;105517;1275;98078;-81
2023/05/07 02:26:30;;;;;;;4.60;3.50;;;;;;;5.75;100.00;101349.68;105563;1272;102600;-79
2023/05/07 02:29:16;;;;;;;5.60;3.90;;;;;;;5.73;100.00;101351.96;105483;1272;99774;-80
2023/05/07 02:32:02;;;;;;;4.80;3.00;;;;;;;5.72;100.00;101352.80;105491;1273;97958;-81
2023/05/07 02:34:50;;;;;;;5.70;4.00;;;;;;;5.71;100.00;101355.70;105041;1272;97964;-79
2023/05/07 02:37:36;;;;;;;6.20;3.70;;;;;;;5.71;100.00;101356.04;104933;1270;97974;-81
2023/05/07 02:40:22;;;;;;;4.80;3.80;;;;;;;5.71;100.00;101355.90;105563;1267;101414;-81
2023/05/07 02:43:07;;;;;;;5.10;3.20;;;;;;;5.69;100.00;101353.73;105436;1271;99111;-80
2023/05/07 02:46:05;;;;;;;7.20;3.90;;;;;;;5.70;100.00;101354.78;105348;1267;98857;-80
2023/05/07 02:48:51;;;;;;;4.40;3.10;;;;;;;5.68;100.00;101354.02;105395;1267;98086;-81
2023/05/07 02:51:37;;;;;;;6.20;3.30;;;;;;;5.65;100.00;101356.23;105442;1271;98524;-80
2023/05/07 02:54:24;;;;;;;7.70;4.00;;;;;;;5.64;100.00;101358.63;105510;1282;102662;-80
2023/05/07 02:57:10;;;;;;;4.00;3.30;;;;;;;5.65;100.00;101356.81;105514;1273;99213;-80
2023/05/07 02:59:55;;;;;;;4.30;3.40;;;;;;;5.65;100.00;101358.07;105481;1271;100027;-81
2023/05/07 03:02:41;;;;;;;4.10;3.10;;;;;;;5.65;100.00;101362.46;105531;1270;97886;-79
2023/05/07 03:05:27;;;;;;;5.10;3.20;;;;;;;5.65;100.00;101361.56;105518;1267;96673;-79
2023/05/07 03:08:13;;;;;;;7.10;3.40;;;;;;;5.64;100.00;101365.04;105496;1267;102135;-80
2023/05/07 03:10:59;;;;;;;4.00;2.90;;;;;;;5.64;100.00;101362.34;105457;1267;100054;-80
2023/05/07 03:13:45;;;;;;;4.40;3.30;;;;;;;5.65;100.00;101366.69;105557;1270;98687;-81
2023/05/07 03:16:30;;;;;;;5.30;3.50;;;;;;;5.65;100.00;101368.14;105573;1272;97956;-79
2023/05/07 03:19:16;;;;;;;4.40;3.10;;;;;;;5.64;100.00;101373.01;105376;1267;98508;-79
2023/05/07 03:22:01;;;;;;;4.40;3.00;;;;;;;5.63;100.00;101373.48;105501;1273;101383;-80
2023/05/07 03:24:47;;;;;;;4.20;2.90;;;;;;;5.62;100.00;101377.77;105073;1269;100511;-80
2023/05/07 03:27:32;;;;;;;4.60;3.20;;;;;;;5.64;100.00;101378.69;104996;1267;99047;-79
2023/05/07 03:30:18;;;;;;;3.60;2.80;;;;;;;5.65;100.00;101382.47;105018;1267;97887;-80
2023/05/07 03:33:04;;;;;;;5.20;2.70;;;;;;;5.66;100.00;101387.67;104876;1271;98112;-80
2023/05/07 03:35:50;;;;;;;5.40;2.70;;;;;;;5.66;100.00;101388.42;105525;1269;101329;-80
2023/05/07 03:38:39;;;;;;;4.00;2.90;;;;;;;5.65;100.00;101392.59;104921;1267;112801;-80
2023/05/07 03:41:25;;;;;;;6.00;3.10;;;;;;;5.65;100.00;101394.69;105496;1270;97899;-79
2023/05/07 03:44:11;;;;;;;5.10;3.20;;;;;;;5.64;100.00;101397.27;105576;1267;98058;-79
2023/05/07 03:46:57;;;;;;;4.20;3.20;;;;;;;5.64;100.00;101404.23;105403;1268;97911;-80
2023/05/07 03:49:42;;;;;;;3.40;2.80;;;;;;;5.63;100.00;101406.77;105543;1270;101356;-79
2023/05/07 03:52:28;;;;;;;4.10;3.00;;;;;;;5.62;100.00;101412.86;105007;1272;99846;-79
2023/05/07 03:55:15;;;;;;;3.50;2.40;;;;;;;5.62;100.00;101414.86;104956;1268;98079;-79
2023/05/07 03:58:02;;;;;;;2.50;2.30;;;;;;;5.62;100.00;101417.27;105026;1270;98008;-79
2023/05/07 04:00:48;;;;;;;4.60;3.10;;;;;;;5.63;100.00;101418.80;105519;1270;98851;-81
2023/05/07 04:03:39;;;;;;;3.70;2.80;;;;;;;5.64;100.00;101417.30;105414;1266;101370;-81
2023/05/07 04:06:25;;;;;;;3.90;2.50;;;;;;;5.63;100.00;101423.59;105507;1271;100358;-80
2023/05/07 04:09:10;;;;;;;3.60;2.60;;;;;;;5.63;100.00;101425.16;104909;1267;97993;-81
2023/05/07 04:11:57;;;;;;;4.10;2.30;;;;;;;5.65;100.00;101432.27;104884;1269;98007;-79
2023/05/07 04:14:43;;;;;;;4.00;3.20;;;;;;;5.64;100.00;101429.89;104919;1274;97961;-80
2023/05/07 04:17:29;;;;;;;5.20;2.80;;;;;;;5.66;100.00;101431.48;105543;1267;103039;-80
2023/05/07 04:20:17;;;;;;;4.40;2.60;;;;;;;5.67;100.00;101436.16;105106;1268;100014;-79
2023/05/07 04:23:04;;;;;;;5.40;3.00;;;;;;;5.68;100.00;101440.11;105427;1272;98102;-81
2023/05/07 04:25:50;;;;;;;4.70;2.80;;;;;;;5.71;100.00;101443.08;105466;1270;97981;-79
2023/05/07 04:28:46;;;;;;;3.50;2.60;;;;;;;5.73;100.00;101444.35;105359;1267;98498;-80
2023/05/07 04:31:33;;;;;;;4.60;2.80;;;;;;;5.73;100.00;101445.36;105575;1267;101354;-80
2023/05/07 04:34:20;;;;;;;3.70;2.50;;;;;;;5.74;100.00;101443.83;105510;1267;99120;-80
2023/05/07 04:37:06;;;;;;;3.60;2.60;;;;;;;5.75;100.00;101446.77;105387;1267;97849;-81
2023/05/07 04:39:52;;;;;;;4.50;2.80;;;;;;;5.75;100.00;101445.52;105539;1270;97801;-81
2023/05/07 04:42:37;;;;;;;4.80;3.00;;;;;;;5.76;100.00;101448.11;105343;1272;99571;-81
2023/05/07 04:45:23;;;;;;;5.20;2.80;;;;;;;5.80;100.00;101447.61;105422;1267;102725;-81
2023/05/07 04:48:09;;;;;;;4.30;3.00;;;;;;;5.83;100.00;101451.95;105476;1270;100114;-81
2023/05/07 04:50:56;;;;;;;7.20;3.00;;;;;;;5.86;100.00;101455.75;105330;1267;98419;-81
2023/05/07 04:53:43;;;;;;;3.60;2.30;;;;;;;5.91;100.00;101459.94;105332;1267;98436;-82
2023/05/07 04:56:32;;;;;;;3.50;2.10;;;;;;;5.93;100.00;101465.36;105354;1267;97976;-80
2023/05/07 04:59:18;;;;;;;3.50;2.70;;;;;;;5.95;100.00;101468.23;105206;1270;102795;-82
2023/05/07 05:02:06;;;;;;;4.70;2.50;;;;;;;5.97;100.00;101462.08;105362;1270;99833;-82
2023/05/07 05:04:52;;;;;;;7.20;2.60;;;;;;;5.98;100.00;101461.39;105365;1270;99438;-81
2023/05/07 05:07:38;;;;;;;2.90;2.30;;;;;;;6.02;100.00;101466.36;105380;1268;98061;-82
2023/05/07 05:10:25;;;;;;;3.30;2.40;;;;;;;6.04;100.00;101473.79;105276;1267;98333;-82
2023/05/07 05:13:12;;;;;;;4.90;2.70;;;;;;;6.07;100.00;101475.15;105353;1267;101355;-81
2023/05/07 05:15:58;;;;;;;4.90;2.70;;;;;;;6.12;100.00;101473.23;105390;1271;100306;-80
2023/05/07 05:18:45;;;;;;;3.30;2.50;;;;;;;6.16;100.00;101475.73;105235;1274;99191;-82
2023/05/07 05:21:32;;;;;;;4.60;2.70;;;;;;;6.18;100.00;101479.63;105397;1273;97990;-80
2023/05/07 05:24:21;;;;;;;3.10;2.00;;;;;;;6.23;100.00;101478.13;105272;1268;97865;-83
2023/05/07 05:27:08;;;;;;;4.20;2.80;;;;;;;6.28;100.00;101480.35;105304;1267;101373;-82
2023/05/07 05:29:54;;;;;;;3.60;2.30;;;;;;;6.33;100.00;101487.35;105333;1272;99119;-81
2023/05/07 05:32:40;;;;;;;3.10;2.50;;;;;;;6.41;100.00;101485.35;105182;1274;99032;-82
2023/05/07 05:35:25;;;;;;;3.80;2.70;;;;;;;6.47;100.00;101482.87;105304;1267;98649;-80
2023/05/07 05:38:10;;;;;;;3.90;2.60;;;;;;;6.50;100.00;101488.24;105384;1270;97928;-82
2023/05/07 05:40:57;;;;;;;3.10;2.10;;;;;;;6.54;100.00;101490.21;105274;1271;101463;-81
2023/05/07 05:43:43;;;;;;;8.00;2.50;;;;;;;6.58;100.00;101495.36;105186;1268;99120;-81
2023/05/07 05:46:30;;;;;;;2.90;2.00;;;;;;;6.62;100.00;101492.88;105324;1267;98347;-81
2023/05/07 05:49:16;;;;;;;3.10;2.40;;;;;;;6.63;100.00;101495.06;105360;1273;97907;-86
2023/05/07 05:52:02;;;;;;;3.10;2.60;;;;;;;6.67;100.00;101492.48;105319;1267;98429;-86
2023/05/07 05:54:48;;;;;;;2.90;2.10;;;;;;;6.73;100.00;101493.41;105166;1268;102975;-83
2023/05/07 05:57:37;;;;;;;2.80;2.30;;;;;;;6.78;100.00;101497.02;105361;1267;101662;-84
2023/05/07 06:00:23;;;;;;;2.60;2.20;;;;;;;6.82;100.00;101505.02;105419;1269;98645;-85
2023/05/07 06:03:15;;;;;;;3.20;2.40;;;;;;;6.84;100.00;101507.29;105366;1274;97961;-85
2023/05/07 06:06:01;;;;;;;2.30;2.00;;;;;;;6.82;100.00;101514.94;105110;1269;97779;-84
2023/05/07 06:08:47;;;;;;;4.30;2.10;;;;;;;6.77;100.00;101520.04;105082;1267;103608;-82
2023/05/07 06:11:40;;;;;;;4.10;1.80;;;;;;;6.74;100.00;101523.09;105412;1271;99258;-86
2023/05/07 06:14:27;;;;;;;16.50;9.80;;;;;;;6.76;100.00;101525.45;105070;1267;97980;-81
2023/05/07 06:21:03;;;;;;;3.10;2.10;;;;;;;6.82;100.00;101529.09;105299;1267;99636;-87
2023/05/07 06:23:52;;;;;;;7.10;3.90;;;;;;;6.81;100.00;101530.98;105252;1267;101364;-83
2023/05/07 06:26:38;;;;;;;3.10;2.50;;;;;;;6.84;100.00;101534.84;105080;1269;100950;-84
2023/05/07 06:29:25;;;;;;;3.40;2.40;;;;;;;6.85;100.00;101537.55;105354;1275;98057;-80
2023/05/07 06:32:14;;;;;;;7.60;4.10;;;;;;;6.86;100.00;101534.74;105155;1271;98752;-85
2023/05/07 06:35:11;;;;;;;4.70;2.50;;;;;;;6.89;100.00;101533.97;105484;1267;97895;-85
2023/05/07 06:37:58;;;;;;;88.80;38.90;;;;;;;6.91;100.00;101534.30;105162;1275;101433;-85
2023/05/07 06:40:49;;;;;;;10.40;5.90;;;;;;;6.94;100.00;101542.73;105321;1272;100947;-79
2023/05/07 06:43:35;;;;;;;10.10;5.60;;;;;;;6.94;100.00;101542.23;105500;1270;98492;-79
2023/05/07 06:46:43;;;;;;;17.00;9.10;;;;;;;6.94;100.00;101546.80;105203;1273;98067;-82
2023/05/07 06:49:31;;;;;;;5.80;4.10;;;;;;;7.02;100.00;101543.80;105313;1272;97821;-79
2023/05/07 06:52:17;;;;;;;4.60;2.70;;;;;;;7.10;100.00;101550.36;104866;1267;101350;-80
2023/05/07 06:55:03;;;;;;;3.00;2.70;;;;;;;7.16;100.00;101549.46;104817;1273;99114;-79
2023/05/07 06:57:49;;;;;;;4.20;2.80;;;;;;;7.21;100.00;101550.15;105279;1272;99310;-80
2023/05/07 07:00:35;;;;;;;4.10;2.10;;;;;;;7.25;100.00;101544.49;105414;1273;97936;-80
2023/05/07 07:03:20;;;;;;;2.70;1.90;;;;;;;7.32;100.00;101547.89;105217;1267;97777;-81
2023/05/07 07:06:06;;;;;;;3.10;2.60;;;;;;;7.36;100.00;101547.13;105300;1270;103062;-81
2023/05/07 07:08:52;;;;;;;2.50;2.20;;;;;;;7.39;99.94;101548.52;105475;1270;100595;-79
2023/05/07 07:11:39;;;;;;;4.80;2.60;;;;;;;7.44;100.00;101550.33;105266;1273;99055;-79
2023/05/07 07:14:25;;;;;;;4.30;2.40;;;;;;;7.52;100.00;101554.54;105391;1270;97966;-79
2023/05/07 07:17:12;;;;;;;4.40;2.70;;;;;;;7.58;99.86;101560.13;105874;1270;97876;-80
2023/05/07 07:19:57;;;;;;;9.20;6.90;;;;;;;7.62;99.79;101557.80;105640;1267;102708;-80
2023/05/07 07:22:43;;;;;;;3.20;2.60;;;;;;;7.68;99.69;101556.49;105624;1270;100394;-80
2023/05/07 07:25:29;;;;;;;4.60;2.70;;;;;;;7.72;99.11;101558.98;105274;1271;98432;-80
2023/05/07 07:28:15;;;;;;;4.90;2.60;;;;;;;7.74;98.69;101560.38;105371;1267;97882;-82
2023/05/07 07:31:01;;;;;;;4.00;2.40;;;;;;;7.80;98.52;101564.15;105320;1267;97966;-79
2023/05/07 07:33:49;;;;;;;3.70;2.90;;;;;;;7.84;97.95;101564.08;105986;1267;102693;-82
2023/05/07 07:36:35;;;;;;;3.50;3.00;;;;;;;7.92;98.35;101566.02;105681;1269;99271;-82
2023/05/07 07:39:21;;;;;;;3.40;2.20;;;;;;;8.00;98.42;101565.56;105356;1268;98778;-82
2023/05/07 07:42:11;;;;;;;2.80;2.30;;;;;;;8.08;98.03;101565.54;105669;1273;97974;-87
2023/05/07 07:45:00;;;;;;;3.90;2.30;;;;;;;8.09;97.16;101570.21;105679;1270;97997;-81
2023/05/07 07:47:48;;;;;;;3.00;2.30;;;;;;;8.06;96.55;101566.94;105484;1273;101423;-86
2023/05/07 07:50:33;;;;;;;2.60;2.20;;;;;;;8.06;96.33;101571.18;105436;1273;100142;-84
2023/05/07 07:53:20;;;;;;;3.50;2.30;;;;;;;8.07;95.99;101578.95;105361;1267;98090;-81
2023/05/07 07:56:06;;;;;;;3.40;2.30;;;;;;;8.06;95.87;101578.67;105539;1273;98033;-84
2023/05/07 07:58:53;;;;;;;3.80;2.30;;;;;;;8.11;95.88;101580.68;105868;1267;99562;-85
2023/05/07 08:01:40;;;;;;;4.10;2.20;;;;;;;8.18;96.15;101582.67;105483;1273;102625;-87
2023/05/07 08:04:26;;;;;;;3.90;2.50;;;;;;;8.25;96.18;101584.47;105445;1270;99141;-87
2023/05/07 08:07:12;;;;;;;2.20;2.00;;;;;;;8.32;95.68;101587.75;105807;1274;97891;-80
2023/05/07 08:10:04;;;;;;;4.80;2.50;;;;;;;8.36;95.13;101589.81;105574;1268;97891;-82
2023/05/07 08:12:51;;;;;;;3.60;2.10;;;;;;;8.39;94.62;101588.45;105474;1266;98008;-85
2023/05/07 08:15:37;;;;;;;6.90;2.60;;;;;;;8.43;94.42;101592.00;105401;1270;101402;-85
2023/05/07 08:18:25;;;;;;;2.60;2.10;;;;;;;8.47;93.75;101590.15;105993;1269;99455;-87
2023/05/07 08:21:12;;;;;;;2.40;1.80;;;;;;;8.49;93.76;101593.73;105540;1270;98066;-82
2023/05/07 08:23:58;;;;;;;3.00;2.20;;;;;;;8.55;94.12;101595.64;105513;1267;97684;-86
2023/05/07 08:26:44;;;;;;;3.20;2.40;;;;;;;8.65;94.26;101599.46;105488;1271;98032;-80
2023/05/07 08:29:31;;;;;;;2.40;1.90;;;;;;;8.76;94.24;101598.55;105375;1267;101367;-80
2023/05/07 08:32:16;;;;;;;3.80;2.20;;;;;;;8.84;93.31;101600.61;105440;1274;99377;-80
2023/05/07 08:35:02;;;;;;;2.40;1.90;;;;;;;8.87;92.46;101603.45;105516;1266;98998;-79
2023/05/07 08:37:48;;;;;;;3.30;2.20;;;;;;;8.87;91.62;101605.08;104985;1272;98071;-79
2023/05/07 08:40:40;;;;;;;2.70;2.30;;;;;;;8.87;91.41;101602.75;104868;1267;98553;-78
2023/05/07 08:43:33;;;;;;;4.20;2.50;;;;;;;8.95;91.39;101602.15;105394;1267;101464;-79
2023/05/07 08:46:21;;;;;;;4.10;2.40;;;;;;;9.05;91.30;101606.26;104737;1269;100317;-78
2023/05/07 08:49:07;;;;;;;5.10;2.50;;;;;;;9.12;90.79;101612.30;104642;1266;98032;-78
2023/05/07 08:51:53;;;;;;;3.80;2.20;;;;;;;9.16;89.94;101615.82;104759;1267;98012;-79
2023/05/07 08:54:40;;;;;;;4.50;2.50;;;;;;;9.18;89.52;101615.48;104851;1268;98950;-79
2023/05/07 08:57:26;;;;;;;4.50;2.50;;;;;;;9.23;88.79;101616.26;104894;1271;101392;-79
2023/05/07 09:00:13;;;;;;;2.20;1.90;;;;;;;9.23;87.88;101619.75;104904;1267;99358;-80
2023/05/07 09:03:00;;;;;;;3.30;2.80;;;;;;;9.24;88.02;101616.16;104882;1272;98009;-80
2023/05/07 09:05:46;;;;;;;3.80;2.40;;;;;;;9.34;88.26;101616.02;104835;1271;98078;-78
2023/05/07 09:08:35;;;;;;;3.60;2.20;;;;;;;9.45;88.40;101617.91;104907;1268;98512;-78
2023/05/07 09:11:24;;;;;;;4.30;2.20;;;;;;;9.57;87.32;101618.45;104908;1267;102626;-79
2023/05/07 09:14:10;;;;;;;3.00;2.10;;;;;;;9.58;86.11;101616.45;104801;1270;99110;-78
2023/05/07 09:16:58;;;;;;;3.20;1.60;;;;;;;9.57;85.83;101622.16;104891;1270;99156;-79
2023/05/07 09:19:45;;;;;;;7.00;2.70;;;;;;;9.64;85.72;101616.99;104872;1271;98059;-79
2023/05/07 09:22:32;;;;;;;3.20;2.40;;;;;;;9.70;85.13;101621.39;105315;1267;97979;-78
2023/05/07 09:25:32;;;;;;;5.20;3.90;;;;;;;9.73;85.40;101623.26;105110;1272;101460;-80
2023/05/07 09:28:19;;;;;;;6.20;3.40;;;;;;;9.75;85.25;101628.16;104860;1268;99783;-79
2023/05/07 09:31:05;;;;;;;2.90;2.20;;;;;;;9.74;84.35;101639.15;104873;1271;97985;-79
2023/05/07 09:33:55;;;;;;;2.10;1.80;;;;;;;9.80;84.75;101640.13;104921;1266;97968;-79
2023/05/07 09:36:40;;;;;;;4.50;2.30;;;;;;;9.90;84.91;101636.64;105217;1273;98136;-82
2023/05/07 09:39:26;;;;;;;2.50;2.00;;;;;;;10.02;84.65;101638.39;105350;1267;101349;-79
2023/05/07 09:42:12;;;;;;;5.20;2.70;;;;;;;10.16;84.24;101634.63;105560;1270;99139;-80
2023/05/07 09:44:59;;;;;;;3.70;2.00;;;;;;;10.22;83.70;101639.00;105274;1266;99471;-82
2023/05/07 09:47:49;;;;;;;2.50;2.10;;;;;;;10.20;82.70;101639.61;105371;1267;97896;-80
2023/05/07 09:50:48;;;;;;;5.50;2.00;;;;;;;10.11;81.82;101650.64;104895;1273;99990;-79
2023/05/07 09:53:35;;;;;;;3.70;2.70;;;;;;;10.01;81.25;101654.42;105608;1270;101344;-80
2023/05/07 09:56:22;;;;;;;2.20;1.70;;;;;;;9.94;81.35;101650.59;105555;1267;99464;-81
2023/05/07 09:59:12;;;;;;;3.00;1.40;;;;;;;10.00;81.69;101654.09;105452;1267;98871;-79
2023/05/07 10:01:59;;;;;;;5.30;2.50;;;;;;;10.20;81.95;101655.14;104745;1267;97895;-81
2023/05/07 10:04:46;;;;;;;2.80;2.20;;;;;;;10.34;81.81;101657.02;105168;1267;98432;-81
2023/05/07 10:07:33;;;;;;;2.70;2.50;;;;;;;10.41;81.09;101655.02;105310;1267;102964;-78
2023/05/07 10:10:24;;;;;;;;;;;;;;;10.46;79.81;101652.00;105336;1270;99092;-80
2023/05/07 10:13:10;;;;;;;4.00;1.60;;;;;;;10.53;80.06;101650.80;104853;1270;97989;-79
2023/05/07 10:15:57;;;;;;;2.80;2.00;;;;;;;10.66;79.79;101654.19;104920;1266;98034;-79
2023/05/07 10:18:46;;;;;;;4.10;1.80;;;;;;;10.71;79.37;101652.02;104967;1270;99567;-80
2023/05/07 10:21:42;;;;;;;2.50;1.80;;;;;;;10.70;78.68;101656.13;105718;1268;101369;-80
2023/05/07 10:24:36;;;;;;;3.20;1.80;;;;;;;10.66;78.47;101658.58;106341;1267;100349;-80
2023/05/07 10:27:23;;;;;;;4.90;2.10;;;;;;;10.65;77.73;101659.64;106119;1267;98308;-82
2023/05/07 10:30:18;;;;;;;3.90;1.90;;;;;;;10.63;77.15;101662.39;107732;1266;95481;-81
2023/05/07 10:33:06;;;;;;;2.90;2.10;;;;;;;10.64;76.68;101661.55;106289;1271;98362;-82
2023/05/07 10:35:58;;;;;;;4.00;1.60;;;;;;;10.79;78.12;101655.44;105482;1270;102774;-79
2023/05/07 10:38:44;;;;;;;3.30;1.80;;;;;;;11.00;77.65;101652.66;104874;1272;99074;-82
2023/05/07 10:41:30;;;;;;;1.90;1.70;;;;;;;11.23;77.86;101648.05;105571;1267;99057;-80
2023/05/07 10:44:28;;;;;;;6.20;2.80;;;;;;;11.43;77.30;101650.81;105504;1270;98125;-81
2023/05/07 10:47:16;;;;;;;12.50;8.00;;;;;;;11.57;75.68;101655.67;105854;1267;98339;-79
2023/05/07 10:50:04;;;;;;;3.00;2.30;;;;;;;11.56;74.27;101660.65;105845;1271;102622;-80
2023/05/07 10:53:28;;;;;;;3.60;2.40;;;;;;;11.39;73.31;101663.39;105751;1266;100368;-78
2023/05/07 10:56:26;;;;;;;3.10;2.30;;;;;;;11.27;73.55;101669.77;105083;1273;98403;-80
2023/05/07 10:59:32;;;;;;;4.90;2.50;;;;;;;11.16;73.10;101671.97;105553;1267;97979;-81
2023/05/07 11:02:22;;;;;;;5.60;2.60;;;;;;;11.08;73.02;101672.02;105595;1272;97932;-84
2023/05/07 11:05:23;;;;;;;11.50;7.20;;;;;;;11.12;73.31;101676.20;105414;1267;110069;-83
2023/05/07 11:08:14;;;;;;;3.60;2.50;;;;;;;11.18;73.22;101668.52;105901;1270;99858;-84
2023/05/07 11:11:11;;;;;;;2.90;2.30;;;;;;;11.25;72.69;101663.90;105882;1267;97973;-87
2023/05/07 11:14:04;;;;;;;3.50;2.30;;;;;;;11.26;72.60;101668.07;106109;1273;97955;-88
2023/05/07 11:17:06;;;;;;;3.30;2.00;;;;;;;11.24;72.09;101673.80;105321;1271;97989;-85
2023/05/07 11:19:56;;;;;;;3.20;1.60;;;;;;;11.24;72.07;101674.39;105144;1267;102696;-85
2023/05/07 11:22:57;;;;;;;5.30;2.30;;;;;;;11.26;71.57;101678.94;105361;1267;100869;-81
2023/05/07 11:25:47;;;;;;;5.00;2.00;;;;;;;11.30;71.86;101681.57;105302;1267;98058;-85
2023/05/07 11:28:40;;;;;;;2.80;1.60;;;;;;;11.37;71.42;101681.09;105128;1271;97861;-84
2023/05/07 11:31:28;;;;;;;2.90;1.70;;;;;;;11.46;70.95;101677.88;105645;1267;98496;-86
2023/05/07 11:34:20;;;;;;;2.70;1.60;;;;;;;11.60;70.99;101680.41;105449;1266;101491;-90
2023/05/07 11:37:09;;;;;;;4.40;1.90;;;;;;;11.72;71.80;101679.84;105178;1267;100452;-84
2023/05/07 11:40:13;;;;;;;7.10;1.80;;;;;;;11.82;70.33;101676.72;105754;1267;98915;-86
2023/05/07 11:42:59;;;;;;;2.40;1.30;;;;;;;11.79;69.58;101678.70;105228;1273;97935;-85
2023/05/07 11:45:46;;;;;;;1.90;1.50;;;;;;;11.75;68.98;101683.02;105354;1270;98494;-84
2023/05/07 11:48:31;;;;;;;8.60;1.80;;;;;;;11.68;69.10;101684.42;105126;1271;101474;-84
2023/05/07 11:51:23;;;;;;;4.70;2.20;;;;;;;11.66;69.16;101687.98;105585;1267;99140;-87
2023/05/07 11:54:11;;;;;;;3.40;1.60;;;;;;;11.66;69.30;101691.78;105489;1267;98717;-80
2023/05/07 11:56:58;;;;;;;2.10;1.70;;;;;;;11.71;69.74;101694.80;105496;1270;97957;-84
2023/05/07 11:59:49;;;;;;;2.70;1.60;;;;;;;11.72;68.51;101696.83;105281;1271;98397;-84
2023/05/07 12:02:35;;;;;;;4.50;1.80;;;;;;;11.71;69.09;101698.36;105221;1267;101352;-85
2023/05/07 12:05:21;;;;;;;1.80;1.30;;;;;;;11.73;68.76;101704.23;104996;1274;100302;-80
2023/05/07 12:08:06;;;;;;;2.90;2.00;;;;;;;11.78;68.46;101697.95;105317;1266;97949;-80
2023/05/07 12:10:52;;;;;;;4.30;1.70;;;;;;;11.87;69.22;101696.98;104651;1270;98540;-80
2023/05/07 12:13:37;;;;;;;1.60;1.30;;;;;;;12.00;69.00;101698.69;104803;1267;98537;-84
2023/05/07 12:16:23;;;;;;;1.80;1.30;;;;;;;12.06;67.82;101697.34;105236;1268;102678;-85
2023/05/07 12:19:12;;;;;;;2.20;1.60;;;;;;;11.99;67.26;101700.80;105275;1267;99539;-82
2023/05/07 12:21:58;;;;;;;3.90;1.60;;;;;;;11.93;67.64;101706.64;105195;1267;98039;-82
2023/05/07 12:24:49;;;;;;;3.40;2.10;;;;;;;11.93;67.50;101705.02;105177;1267;98037;-84
2023/05/07 12:27:38;;;;;;;3.00;1.30;;;;;;;11.90;67.19;101702.31;105415;1267;98079;-82
2023/05/07 12:30:23;;;;;;;5.30;1.50;;;;;;;11.85;67.15;101706.54;104840;1270;101552;-82
2023/05/07 12:33:10;;;;;;;2.40;1.40;;;;;;;11.77;66.49;101707.45;104974;1268;99844;-83
2023/05/07 12:35:56;;;;;;;4.20;1.60;;;;;;;11.76;67.11;101706.81;105131;1268;98958;-80
2023/05/07 12:38:44;;;;;;;3.50;1.60;;;;;;;11.83;67.55;101710.01;105298;1267;97977;-77
2023/05/07 12:41:29;;;;;;;3.50;1.60;;;;;;;11.91;67.81;101708.36;104832;1270;98583;-82
2023/05/07 12:44:15;;;;;;;3.70;1.80;;;;;;;12.05;67.81;101703.52;104747;1271;101337;-81
2023/05/07 12:47:03;;;;;;;2.10;1.70;;;;;;;12.22;67.43;101694.97;105343;1271;99185;-83
2023/05/07 12:50:25;;;;;;;2.40;1.50;;;;;;;12.39;67.67;101697.36;105599;1267;98566;-89
2023/05/07 12:53:17;;;;;;;2.70;1.40;;;;;;;12.42;65.89;101700.73;105601;1266;97997;-87
2023/05/07 12:56:05;;;;;;;1.90;1.50;;;;;;;12.35;64.97;101696.75;105593;1268;97976;-84